Report METAR

 

LIML - Milano/Linate, Italy
Distance from station: NO 27km
Dati ricevuti: 11/07/2020 22:20
Sereno
Sereno
 Vento da ESE
Vento: ESE 15 km/h
Temperatura: 23°C
P.to Rugiada: 17°C
Umidità: 69%
Barometro: 1016 hPa
Nuvole: Sereno
Visibility: 10 km
2020/07/11 20:20 LIML 112020Z AUTO 12008KT 9999 NCD 23/17 Q1016
LIME - Bergamo/Orio Ser, Italy
Distance from station: NNE 43km
Dati ricevuti: 11/07/2020 22:20
Few Clouds
Few Clouds
 Vento da SE
Vento: SE 11 km/h
Temperatura: 21°C
P.to Rugiada: 16°C
Umidità: 73%
Barometro: 1017 hPa
Nuvole: Few Clouds
Visibility: 10 km
Cloud details: Few Clouds 1219 m
2020/07/11 20:20 LIME 112020Z 14006KT 9999 FEW040 21/16 Q1017 NOSIG
 
LIMS - Piacenza, it-Afb, Italy
Distance from station: SSE 45km
Dati ricevuti: 11/07/2020 19:55
DATI Obsoleti
Few Clouds
Few Clouds
 Vento da E
Vento: E 15 km/h
Temperatura: 25°C
P.to Rugiada: 20°C
Umidità: 74%
Barometro: 1013 hPa
Nuvole: Few Clouds
Visibility: 10 km
Cloud details: Few Clouds 914 m
2020/07/11 17:55 LIMS 111755Z 10008KT 9999 FEW030TCU 25/20 Q1013
LIPO - Brescia/Montichi, Italy
Distance from station: ENE 65km
Dati ricevuti: 11/07/2020 21:50
Sereno
Sereno
 Vento da E
Vento: E 7 km/h
Temperatura: 22°C
P.to Rugiada: 17°C
Umidità: 73%
Barometro: 1016 hPa
Summary: Sereno
Visibility: superiore a 10 km
2020/07/11 19:50 LIPO 111950Z 10004KT CAVOK 22/17 Q1016